Time;durP1;ratioP1;P1;durP2;ratioP2;P2;SDS_P1;SDS_P2;PMS_P1;PMS_P2;Temp;Humidity;BMP_temperature;BMP_pressure;BME280_temperature;BME280_humidity;BME280_pressure;Samples;Min_cycle;Max_cycle;Signal;HPM_P1;HPM_P2
2022/02/14 00:01:55;;;;;;;;;;;21.70;42.20;;;;;;5113143;28;20011;-51
2022/02/14 00:04:22;;;;;;;;;;;21.70;42.20;;;;;;5114212;28;20399;-48
2022/02/14 00:06:49;;;;;;;;;;;21.70;42.20;;;;;;5110296;28;19924;-46
2022/02/14 00:09:16;;;;;;;;;;;21.70;42.20;;;;;;5104023;28;19979;-47
2022/02/14 00:11:43;;;;;;;;;;;21.70;42.20;;;;;;5094058;28;20010;-46
2022/02/14 00:14:10;;;;;;;;;;;21.70;42.30;;;;;;5102225;28;20018;-50
2022/02/14 00:16:37;;;;;;;;;;;21.70;42.20;;;;;;5114069;28;19924;-49
2022/02/14 00:19:04;;;;;;;;;;;21.70;42.30;;;;;;5137370;27;20006;-48
2022/02/14 00:21:31;;;;;;;;;;;21.70;42.20;;;;;;5155317;27;20022;-51
2022/02/14 00:23:59;;;;;;;;;;;21.70;42.20;;;;;;5154519;27;19967;-48
2022/02/14 00:26:26;;;;;;;;;;;21.70;42.20;;;;;;5155499;27;19962;-50
2022/02/14 00:28:53;;;;;;;;;;;21.70;42.30;;;;;;5154235;27;20017;-51
2022/02/14 00:31:20;;;;;;;;;;;21.70;42.20;;;;;;5155519;27;19966;-50
2022/02/14 00:33:47;;;;;;;;;;;21.70;42.20;;;;;;5155051;27;20025;-46
2022/02/14 00:36:14;;;;;;;;;;;21.70;42.20;;;;;;5137091;27;20011;-47
2022/02/14 00:38:41;;;;;;;;;;;21.70;42.30;;;;;;5154229;27;20442;-46
2022/02/14 00:41:09;;;;;;;;;;;21.70;42.20;;;;;;5155101;27;20018;-48
2022/02/14 00:43:36;;;;;;;;;;;21.70;42.20;;;;;;5154440;27;19923;-44
2022/02/14 00:46:04;;;;;;;;;;;21.70;42.20;;;;;;5155325;27;19923;-45
2022/02/14 00:48:31;;;;;;;;;;;21.70;42.30;;;;;;5155338;27;20332;-45
2022/02/14 00:50:58;;;;;;;;;;;21.70;42.20;;;;;;5136679;27;19923;-45
2022/02/14 00:53:25;;;;;;;;;;;21.70;42.20;;;;;;5135678;27;19958;-46
2022/02/14 00:55:52;;;;;;;;;;;21.70;42.20;;;;;;5154959;27;20033;-45
2022/02/14 00:58:19;;;;;;;;;;;21.70;42.20;;;;;;5155611;27;20427;-44
2022/02/14 01:00:46;;;;;;;;;;;21.60;42.20;;;;;;5158422;27;20099;-46
2022/02/14 01:03:13;;;;;;;;;;;21.60;42.20;;;;;;5159264;27;19923;-46
2022/02/14 01:05:40;;;;;;;;;;;21.60;42.20;;;;;;5131056;27;19962;-47
2022/02/14 01:08:07;;;;;;;;;;;21.60;42.20;;;;;;5137779;27;20374;-50
2022/02/14 01:10:34;;;;;;;;;;;21.60;42.20;;;;;;5158689;27;19923;-44
2022/02/14 01:13:02;;;;;;;;;;;21.60;42.20;;;;;;5159315;27;20362;-45
2022/02/14 01:15:29;;;;;;;;;;;21.60;42.20;;;;;;5139469;27;19973;-44
2022/02/14 01:17:56;;;;;;;;;;;21.60;42.20;;;;;;5158837;27;20290;-53
2022/02/14 01:20:23;;;;;;;;;;;21.60;42.20;;;;;;5140717;27;19923;-49
2022/02/14 01:22:52;;;;;;;;;;;21.60;42.20;;;;;;5158454;27;19927;-50
2022/02/14 01:25:19;;;;;;;;;;;21.60;42.20;;;;;;5158126;27;19923;-48
2022/02/14 01:27:47;;;;;;;;;;;21.60;42.20;;;;;;5158831;27;20002;-50
2022/02/14 01:30:14;;;;;;;;;;;21.60;42.20;;;;;;5158095;27;20285;-48
2022/02/14 01:32:40;;;;;;;;;;;21.60;42.20;;;;;;5158724;27;19968;-52
2022/02/14 01:35:07;;;;;;;;;;;21.60;42.30;;;;;;5158261;27;20021;-50
2022/02/14 01:37:38;;;;;;;;;;;21.60;42.30;;;;;;5158513;27;20002;-43
2022/02/14 01:40:08;;;;;;;;;;;21.60;42.30;;;;;;5144469;27;19923;-51
2022/02/14 01:42:35;;;;;;;;;;;21.60;42.30;;;;;;5137816;27;19969;-50
2022/02/14 01:45:02;;;;;;;;;;;21.60;42.90;;;;;;5127033;27;20382;-45
2022/02/14 01:47:29;;;;;;;;;;;21.60;42.30;;;;;;5158462;27;20009;-46
2022/02/14 01:49:58;;;;;;;;;;;21.60;42.20;;;;;;5158095;27;19974;-49
2022/02/14 01:52:29;;;;;;;;;;;21.60;42.30;;;;;;5157858;27;20022;-45
2022/02/14 01:54:56;;;;;;;;;;;21.60;42.30;;;;;;5157421;27;19924;-45
2022/02/14 01:57:26;;;;;;;;;;;21.60;42.30;;;;;;5140477;27;19927;-47
2022/02/14 01:59:54;;;;;;;;;;;21.60;42.30;;;;;;5157229;27;19970;-48
2022/02/14 02:02:21;;;;;;;;;;;21.50;42.20;;;;;;5158179;27;20339;-46
2022/02/14 02:04:48;;;;;;;;;;;21.60;42.30;;;;;;5155986;27;19945;-46
2022/02/14 02:07:15;;;;;;;;;;;21.50;42.20;;;;;;5137225;27;20002;-47
2022/02/14 02:09:43;;;;;;;;;;;21.50;42.30;;;;;;5143919;27;19966;-49
2022/02/14 02:12:23;;;;;;;;;;;21.50;42.30;;;;;;5157695;27;19923;-47
2022/02/14 02:14:50;;;;;;;;;;;21.50;42.20;;;;;;5156782;27;20013;-45
2022/02/14 02:17:17;;;;;;;;;;;21.50;42.30;;;;;;5157572;27;19974;-47
2022/02/14 02:19:44;;;;;;;;;;;21.50;42.30;;;;;;5139211;27;20007;-48
2022/02/14 02:22:11;;;;;;;;;;;21.50;42.30;;;;;;5157340;27;20009;-50
2022/02/14 02:24:52;;;;;;;;;;;21.50;42.30;;;;;;5156678;27;19973;-47
2022/02/14 02:27:25;;;;;;;;;;;21.50;42.30;;;;;;5157639;27;20009;-47
2022/02/14 02:29:54;;;;;;;;;;;21.50;42.30;;;;;;5156605;27;20458;-45
2022/02/14 02:32:22;;;;;;;;;;;21.50;42.30;;;;;;5157250;27;19952;-47
2022/02/14 02:34:50;;;;;;;;;;;21.50;42.30;;;;;;5157136;27;19923;-47
2022/02/14 02:37:17;;;;;;;;;;;21.50;42.30;;;;;;5157435;27;20319;-50
2022/02/14 02:39:45;;;;;;;;;;;21.50;42.30;;;;;;5156703;27;19984;-46
2022/02/14 02:42:13;;;;;;;;;;;21.50;42.30;;;;;;5157376;27;19923;-50
2022/02/14 02:44:41;;;;;;;;;;;21.50;42.30;;;;;;5138268;27;20373;-50
2022/02/14 02:47:09;;;;;;;;;;;21.50;42.30;;;;;;5157108;27;19923;-48
2022/02/14 02:49:37;;;;;;;;;;;21.50;42.30;;;;;;5157220;27;20326;-48
2022/02/14 02:52:05;;;;;;;;;;;21.50;42.30;;;;;;5138712;27;20398;-48
2022/02/14 02:54:32;;;;;;;;;;;21.50;42.30;;;;;;5156004;27;19977;-48
2022/02/14 02:57:00;;;;;;;;;;;21.50;42.30;;;;;;5156794;27;19927;-44
2022/02/14 02:59:28;;;;;;;;;;;21.50;42.30;;;;;;5156757;27;20446;-49
2022/02/14 03:01:55;;;;;;;;;;;21.50;42.40;;;;;;5155927;27;20339;-49
2022/02/14 03:04:23;;;;;;;;;;;21.40;42.30;;;;;;5156647;27;20432;-47
2022/02/14 03:06:50;;;;;;;;;;;21.40;42.30;;;;;;5137418;27;19984;-51
2022/02/14 03:09:17;;;;;;;;;;;21.40;42.30;;;;;;5135980;27;19928;-52
2022/02/14 03:11:46;;;;;;;;;;;21.40;42.30;;;;;;5117656;27;20287;-45
2022/02/14 03:14:14;;;;;;;;;;;21.40;42.30;;;;;;5135915;27;19996;-45
2022/02/14 03:16:41;;;;;;;;;;;21.40;42.30;;;;;;5149757;27;20272;-46
2022/02/14 03:19:08;;;;;;;;;;;21.40;42.30;;;;;;5156247;27;19923;-44
2022/02/14 03:21:35;;;;;;;;;;;21.40;42.30;;;;;;5155478;27;19924;-50
2022/02/14 03:24:02;;;;;;;;;;;21.40;42.30;;;;;;5156249;27;19987;-46
2022/02/14 03:26:30;;;;;;;;;;;21.40;42.60;;;;;;5155714;27;19952;-43
2022/02/14 03:28:57;;;;;;;;;;;21.40;42.30;;;;;;5156433;27;19991;-46
2022/02/14 03:31:24;;;;;;;;;;;21.40;42.30;;;;;;5155334;27;19923;-46
2022/02/14 03:33:52;;;;;;;;;;;21.40;42.30;;;;;;5156334;27;19923;-44
2022/02/14 03:36:20;;;;;;;;;;;21.40;42.40;;;;;;5156302;27;19923;-44
2022/02/14 03:38:47;;;;;;;;;;;21.40;42.40;;;;;;5155843;27;19930;-45
2022/02/14 03:41:14;;;;;;;;;;;21.40;42.40;;;;;;5155712;27;19931;-46
2022/02/14 03:43:42;;;;;;;;;;;21.40;42.40;;;;;;5156168;27;19975;-45
2022/02/14 03:46:09;;;;;;;;;;;21.40;42.40;;;;;;5154774;27;20394;-45
2022/02/14 03:48:36;;;;;;;;;;;21.40;42.40;;;;;;5156082;27;20271;-45
2022/02/14 03:51:03;;;;;;;;;;;21.40;42.40;;;;;;5156049;27;19926;-47
2022/02/14 03:53:30;;;;;;;;;;;21.40;42.40;;;;;;5155871;27;20327;-45
2022/02/14 03:55:58;;;;;;;;;;;21.40;42.40;;;;;;5154813;27;19923;-44
2022/02/14 03:58:25;;;;;;;;;;;21.40;42.40;;;;;;5155918;27;19923;-49
2022/02/14 04:00:53;;;;;;;;;;;21.40;42.40;;;;;;5154859;27;19985;-45
2022/02/14 04:03:20;;;;;;;;;;;21.40;42.40;;;;;;5155847;27;20022;-45
2022/02/14 04:05:47;;;;;;;;;;;21.40;42.40;;;;;;5145476;27;19965;-45
2022/02/14 04:08:14;;;;;;;;;;;21.40;42.40;;;;;;5134964;27;19966;-46
2022/02/14 04:10:41;;;;;;;;;;;21.40;42.40;;;;;;5138802;27;20029;-45
2022/02/14 04:13:11;;;;;;;;;;;21.40;42.40;;;;;;5155679;27;19968;-44
2022/02/14 04:15:38;;;;;;;;;;;21.30;42.30;;;;;;5136506;27;19923;-46
2022/02/14 04:18:07;;;;;;;;;;;21.30;42.30;;;;;;5155178;27;19968;-46
2022/02/14 04:20:34;;;;;;;;;;;21.30;42.30;;;;;;5155592;27;19978;-50
2022/02/14 04:23:04;;;;;;;;;;;21.30;42.30;;;;;;5155451;27;19968;-46
2022/02/14 04:25:32;;;;;;;;;;;21.40;42.40;;;;;;5154780;27;19952;-44
2022/02/14 04:27:59;;;;;;;;;;;21.30;42.30;;;;;;5155542;27;19923;-46
2022/02/14 04:30:29;;;;;;;;;;;21.30;42.40;;;;;;5155285;27;20396;-52
2022/02/14 04:33:00;;;;;;;;;;;21.30;42.30;;;;;;5155149;27;19923;-52
2022/02/14 04:35:28;;;;;;;;;;;21.30;42.30;;;;;;5162348;27;19923;-51
2022/02/14 04:37:59;;;;;;;;;;;21.30;42.30;;;;;;5162235;27;19937;-47
2022/02/14 04:40:27;;;;;;;;;;;21.30;42.30;;;;;;5162337;27;19930;-50
2022/02/14 04:42:54;;;;;;;;;;;21.30;42.30;;;;;;5161578;27;19923;-46
2022/02/14 04:45:22;;;;;;;;;;;21.30;42.40;;;;;;5162854;27;19934;-49
2022/02/14 04:47:49;;;;;;;;;;;21.30;42.40;;;;;;5161098;27;19923;-52
2022/02/14 04:50:16;;;;;;;;;;;21.30;42.40;;;;;;5161973;27;19923;-49
2022/02/14 04:52:43;;;;;;;;;;;21.30;42.40;;;;;;5162048;27;19927;-52
2022/02/14 04:55:10;;;;;;;;;;;21.30;42.40;;;;;;5161849;27;19975;-47
2022/02/14 04:57:37;;;;;;;;;;;21.30;42.40;;;;;;5161081;27;20389;-49
2022/02/14 05:00:05;;;;;;;;;;;21.30;42.40;;;;;;5162136;27;19966;-46
2022/02/14 05:02:32;;;;;;;;;;;21.30;42.40;;;;;;5160974;27;19991;-48
2022/02/14 05:04:59;;;;;;;;;;;21.30;42.40;;;;;;5158171;27;20460;-50
2022/02/14 05:07:26;;;;;;;;;;;21.30;42.40;;;;;;5141214;27;19967;-49
2022/02/14 05:09:53;;;;;;;;;;;21.30;42.40;;;;;;5141308;27;20267;-52
2022/02/14 05:12:20;;;;;;;;;;;21.30;42.40;;;;;;5153327;27;19927;-44
2022/02/14 05:14:47;;;;;;;;;;;21.30;42.30;;;;;;5161910;27;20428;-52
2022/02/14 05:17:15;;;;;;;;;;;21.30;42.40;;;;;;5160870;27;19974;-46
2022/02/14 05:19:42;;;;;;;;;;;21.30;42.60;;;;;;5161796;27;19927;-45
2022/02/14 05:22:10;;;;;;;;;;;21.30;42.40;;;;;;5161763;27;19968;-45
2022/02/14 05:24:37;;;;;;;;;;;21.30;42.40;;;;;;5161939;27;19952;-48
2022/02/14 05:27:04;;;;;;;;;;;21.30;42.40;;;;;;5160963;27;19926;-44
2022/02/14 05:29:31;;;;;;;;;;;21.30;42.40;;;;;;5161897;27;19976;-47
2022/02/14 05:31:59;;;;;;;;;;;21.30;42.40;;;;;;5160785;27;19970;-45
2022/02/14 05:34:26;;;;;;;;;;;21.30;42.40;;;;;;5161778;27;19962;-46
2022/02/14 05:36:53;;;;;;;;;;;21.30;42.30;;;;;;5161688;27;19927;-46
2022/02/14 05:39:20;;;;;;;;;;;21.30;42.40;;;;;;5161802;27;19923;-50
2022/02/14 05:41:47;;;;;;;;;;;21.30;42.40;;;;;;5161019;27;19962;-46
2022/02/14 05:44:14;;;;;;;;;;;21.20;42.30;;;;;;5161325;27;19923;-49
2022/02/14 05:46:41;;;;;;;;;;;21.30;42.40;;;;;;5156440;27;19930;-45
2022/02/14 05:49:08;;;;;;;;;;;21.20;42.30;;;;;;5158418;27;19923;-45
2022/02/14 05:51:35;;;;;;;;;;;21.20;42.30;;;;;;5158206;27;19923;-45
2022/02/14 05:54:02;;;;;;;;;;;21.20;42.30;;;;;;5158061;27;20034;-47
2022/02/14 05:56:29;;;;;;;;;;;21.30;42.40;;;;;;5156465;27;19923;-47
2022/02/14 05:58:56;;;;;;;;;;;21.20;42.30;;;;;;5137585;27;19927;-43
2022/02/14 06:01:23;;;;;;;;;;;21.20;42.30;;;;;;5137473;27;20302;-46
2022/02/14 06:03:50;;;;;;;;;;;21.20;42.30;;;;;;5154556;27;20416;-49
2022/02/14 06:06:19;;;;;;;;;;;21.20;42.30;;;;;;5143091;27;19923;-46
2022/02/14 06:08:46;;;;;;;;;;;21.20;42.30;;;;;;5136909;27;19923;-48
2022/02/14 06:11:13;;;;;;;;;;;21.20;42.30;;;;;;5136960;27;19949;-48
2022/02/14 06:13:40;;;;;;;;;;;21.20;42.30;;;;;;5154649;27;20417;-46
2022/02/14 06:16:07;;;;;;;;;;;21.20;42.30;;;;;;5157515;27;20374;-48
2022/02/14 06:18:34;;;;;;;;;;;21.20;42.30;;;;;;5156382;27;19971;-45
2022/02/14 06:21:01;;;;;;;;;;;21.20;42.30;;;;;;5157775;27;20374;-49
2022/02/14 06:23:28;;;;;;;;;;;21.20;42.30;;;;;;5157247;27;19930;-49
2022/02/14 06:25:55;;;;;;;;;;;21.20;42.30;;;;;;5157615;27;19927;-47
2022/02/14 06:28:22;;;;;;;;;;;21.20;42.30;;;;;;5156891;27;19923;-45
2022/02/14 06:30:49;;;;;;;;;;;21.20;42.30;;;;;;5157262;27;19930;-46
2022/02/14 06:33:16;;;;;;;;;;;21.20;42.30;;;;;;5156506;27;19922;-45
2022/02/14 06:35:44;;;;;;;;;;;21.20;42.30;;;;;;5157417;27;19927;-48
2022/02/14 06:38:11;;;;;;;;;;;21.20;42.30;;;;;;5157294;27;19923;-43
2022/02/14 06:40:40;;;;;;;;;;;21.20;42.30;;;;;;5157461;27;19945;-44
2022/02/14 06:43:07;;;;;;;;;;;21.20;42.30;;;;;;5156307;27;19923;-50
2022/02/14 06:45:34;;;;;;;;;;;21.20;42.30;;;;;;5157335;27;19972;-48
2022/02/14 06:48:01;;;;;;;;;;;21.20;42.40;;;;;;5149834;27;19967;-46
2022/02/14 06:50:29;;;;;;;;;;;21.20;42.30;;;;;;5136511;27;20043;-46
2022/02/14 06:52:56;;;;;;;;;;;21.20;42.30;;;;;;5117944;27;19988;-48
2022/02/14 06:55:23;;;;;;;;;;;21.20;42.20;;;;;;5135790;27;20279;-47
2022/02/14 06:57:50;;;;;;;;;;;21.20;42.20;;;;;;5142152;27;20332;-47
2022/02/14 07:00:18;;;;;;;;;;;21.20;42.20;;;;;;5138548;27;19923;-44
2022/02/14 07:02:45;;;;;;;;;;;21.20;42.20;;;;;;5155694;27;19927;-44
2022/02/14 07:05:15;;;;;;;;;;;21.20;42.20;;;;;;5151902;27;19973;-44
2022/02/14 07:07:42;;;;;;;;;;;21.20;42.20;;;;;;5135875;27;19943;-46
2022/02/14 07:10:10;;;;;;;;;;;21.20;42.20;;;;;;5135685;27;19923;-45
2022/02/14 07:12:37;;;;;;;;;;;21.20;42.20;;;;;;5138636;27;19984;-46
2022/02/14 07:15:04;;;;;;;;;;;21.20;42.20;;;;;;5156523;27;19970;-50
2022/02/14 07:17:32;;;;;;;;;;;21.20;42.20;;;;;;5156645;27;19923;-47
2022/02/14 07:19:59;;;;;;;;;;;21.20;42.20;;;;;;5135403;27;19963;-47
2022/02/14 07:22:26;;;;;;;;;;;21.20;42.20;;;;;;5135660;27;19930;-47
2022/02/14 07:24:53;;;;;;;;;;;21.20;42.20;;;;;;5135749;27;20410;-52
2022/02/14 07:27:20;;;;;;;;;;;21.20;42.20;;;;;;5135492;27;19984;-53
2022/02/14 07:29:47;;;;;;;;;;;21.20;42.20;;;;;;5135222;27;19927;-48
2022/02/14 07:32:15;;;;;;;;;;;21.20;42.10;;;;;;5135536;27;19949;-54
2022/02/14 07:34:42;;;;;;;;;;;21.20;42.10;;;;;;5151308;27;19923;-48
2022/02/14 07:37:09;;;;;;;;;;;21.20;42.10;;;;;;5156040;27;20336;-49
2022/02/14 07:39:36;;;;;;;;;;;21.30;42.20;;;;;;5156233;27;19926;-44
2022/02/14 07:42:03;;;;;;;;;;;21.30;42.10;;;;;;5156199;27;19931;-50
2022/02/14 07:44:30;;;;;;;;;;;21.30;42.10;;;;;;5155422;27;20013;-48
2022/02/14 07:46:57;;;;;;;;;;;21.30;42.10;;;;;;5137788;27;19946;-46
2022/02/14 07:49:24;;;;;;;;;;;21.30;42.10;;;;;;5154699;27;19923;-47
2022/02/14 07:51:51;;;;;;;;;;;21.30;42.10;;;;;;5155772;27;19972;-48
2022/02/14 07:54:18;;;;;;;;;;;21.30;42.10;;;;;;5155523;27;20013;-46
2022/02/14 07:56:45;;;;;;;;;;;21.30;42.00;;;;;;5137209;27;19923;-49
2022/02/14 07:59:12;;;;;;;;;;;21.30;42.00;;;;;;5155200;27;19923;-45
2022/02/14 08:01:40;;;;;;;;;;;21.30;42.00;;;;;;5155498;27;20343;-47
2022/02/14 08:04:11;;;;;;;;;;;21.30;42.00;;;;;;5154698;27;20006;-48
2022/02/14 08:06:39;;;;;;;;;;;21.30;42.00;;;;;;5137474;27;19929;-48
2022/02/14 08:09:07;;;;;;;;;;;21.30;42.00;;;;;;5134543;27;19988;-44
2022/02/14 08:11:34;;;;;;;;;;;21.30;41.90;;;;;;5135026;27;19977;-46
2022/02/14 08:14:01;;;;;;;;;;;21.30;41.90;;;;;;5143371;27;20297;-45
2022/02/14 08:16:30;;;;;;;;;;;21.30;41.90;;;;;;5155495;27;19972;-44
2022/02/14 08:19:01;;;;;;;;;;;21.30;41.90;;;;;;5154349;27;20417;-45
2022/02/14 08:21:29;;;;;;;;;;;21.30;41.80;;;;;;5155398;27;19963;-47
2022/02/14 08:23:56;;;;;;;;;;;21.30;41.80;;;;;;5155172;27;19923;-44
2022/02/14 08:26:23;;;;;;;;;;;21.30;41.80;;;;;;5155514;27;20009;-46
2022/02/14 08:28:50;;;;;;;;;;;21.30;41.80;;;;;;5154883;27;19922;-46
2022/02/14 08:31:17;;;;;;;;;;;21.30;41.80;;;;;;5155432;27;20339;-45
2022/02/14 08:33:45;;;;;;;;;;;21.30;41.80;;;;;;5154536;27;20036;-48
2022/02/14 08:36:15;;;;;;;;;;;21.40;41.80;;;;;;5155214;27;19927;-45
2022/02/14 08:38:42;;;;;;;;;;;21.40;41.80;;;;;;5155130;27;20022;-48
2022/02/14 08:41:09;;;;;;;;;;;21.40;41.80;;;;;;5136734;27;19974;-52
2022/02/14 08:43:36;;;;;;;;;;;21.40;41.80;;;;;;5154452;27;19991;-51
2022/02/14 08:46:04;;;;;;;;;;;21.40;41.80;;;;;;5154703;27;19934;-46
2022/02/14 08:48:31;;;;;;;;;;;21.40;41.70;;;;;;5154150;27;20005;-47
2022/02/14 08:50:58;;;;;;;;;;;21.40;41.70;;;;;;5134257;27;20317;-45
2022/02/14 08:53:31;;;;;;;;;;;21.40;41.70;;;;;;5133904;28;19923;-46
2022/02/14 08:56:00;;;;;;;;;;;21.40;41.60;;;;;;5134298;28;20371;-45
2022/02/14 08:58:28;;;;;;;;;;;21.40;41.60;;;;;;5133807;27;19923;-47
2022/02/14 09:00:55;;;;;;;;;;;21.50;41.60;;;;;;5154741;27;19923;-46
2022/02/14 09:03:23;;;;;;;;;;;21.50;41.60;;;;;;5155064;27;19923;-48
2022/02/14 09:05:50;;;;;;;;;;;21.50;41.60;;;;;;5142837;27;19974;-44
2022/02/14 09:08:17;;;;;;;;;;;21.50;41.50;;;;;;5133854;28;20018;-45
2022/02/14 09:10:44;;;;;;;;;;;21.50;41.50;;;;;;5134069;28;20452;-53
2022/02/14 09:13:11;;;;;;;;;;;21.50;41.50;;;;;;5134380;28;19923;-48
2022/02/14 09:15:38;;;;;;;;;;;21.50;41.40;;;;;;5133566;27;19959;-46
2022/02/14 09:18:05;;;;;;;;;;;21.50;41.40;;;;;;5134262;28;19924;-46
2022/02/14 09:20:34;;;;;;;;;;;21.50;41.30;;;;;;5131278;27;19927;-47
2022/02/14 09:23:01;;;;;;;;;;;21.50;41.30;;;;;;5140523;27;20316;-49
2022/02/14 09:25:28;;;;;;;;;;;21.60;41.30;;;;;;5140698;27;19923;-45
2022/02/14 09:27:56;;;;;;;;;;;21.60;41.30;;;;;;5140254;27;19923;-53
2022/02/14 09:30:23;;;;;;;;;;;21.60;41.20;;;;;;5157643;27;20010;-51
2022/02/14 09:32:54;;;;;;;;;;;21.60;41.20;;;;;;5158640;27;19977;-52
2022/02/14 09:35:27;;;;;;;;;;;21.60;41.20;;;;;;5139342;27;19968;-50
2022/02/14 09:37:57;;;;;;;;;;;21.60;41.10;;;;;;5158170;27;20026;-52
2022/02/14 09:40:25;;;;;;;;;;;21.60;41.10;;;;;;5158259;27;20404;-48
2022/02/14 09:43:08;;;;;;;;;;;21.60;41.10;;;;;;5158731;27;20027;-48
2022/02/14 09:45:35;;;;;;;;;;;21.70;41.10;;;;;;5157424;27;19923;-47
2022/02/14 09:48:06;;;;;;;;;;;21.70;41.00;;;;;;5139857;27;19923;-50
2022/02/14 09:50:35;;;;;;;;;;;21.70;41.00;;;;;;5156988;27;19923;-49
2022/02/14 09:53:04;;;;;;;;;;;21.70;40.90;;;;;;5158029;27;19923;-45
2022/02/14 09:55:39;;;;;;;;;;;21.70;40.90;;;;;;5158234;27;19929;-48
2022/02/14 09:58:07;;;;;;;;;;;21.70;40.90;;;;;;5157965;27;19972;-47
2022/02/14 10:00:34;;;;;;;;;;;21.70;40.80;;;;;;5157444;27;19923;-45
2022/02/14 10:03:13;;;;;;;;;;;21.80;40.90;;;;;;5158220;27;19962;-48
2022/02/14 10:05:41;;;;;;;;;;;21.80;40.90;;;;;;5147383;27;19923;-48
2022/02/14 10:08:09;;;;;;;;;;;21.80;40.80;;;;;;5136906;27;19923;-45
2022/02/14 10:10:37;;;;;;;;;;;21.80;40.80;;;;;;5137274;27;19989;-46
2022/02/14 10:13:04;;;;;;;;;;;21.80;40.90;;;;;;5137298;27;19971;-51
2022/02/14 10:15:34;;;;;;;;;;;21.80;40.80;;;;;;5146101;27;19930;-50
2022/02/14 10:18:01;;;;;;;;;;;21.80;40.80;;;;;;5157369;27;19938;-48
2022/02/14 10:20:31;;;;;;;;;;;21.80;40.80;;;;;;5138703;27;19923;-49
2022/02/14 10:23:04;;;;;;;;;;;21.80;40.80;;;;;;5156940;27;20147;-46
2022/02/14 10:25:36;;;;;;;;;;;21.80;40.80;;;;;;5157619;27;19968;-52
2022/02/14 10:28:15;;;;;;;;;;;21.80;40.80;;;;;;5157422;27;19931;-49
2022/02/14 10:30:59;;;;;;;;;;;21.90;40.80;;;;;;5156266;27;19966;-48
2022/02/14 10:33:45;;;;;;;;;;;21.90;40.80;;;;;;5157540;27;19923;-50
2022/02/14 10:36:12;;;;;;;;;;;21.90;40.80;;;;;;5156037;27;19927;-48
2022/02/14 10:38:40;;;;;;;;;;;21.90;40.80;;;;;;5138805;27;19923;-51
2022/02/14 10:41:13;;;;;;;;;;;21.90;40.80;;;;;;5157393;27;19923;-51
2022/02/14 10:43:40;;;;;;;;;;;21.90;40.80;;;;;;5156866;27;20006;-51
2022/02/14 10:46:08;;;;;;;;;;;21.90;40.80;;;;;;5138119;27;20332;-49
2022/02/14 10:48:37;;;;;;;;;;;21.90;40.80;;;;;;5157220;27;19927;-52
2022/02/14 10:51:04;;;;;;;;;;;21.90;40.80;;;;;;5155750;27;19954;-48
2022/02/14 10:53:43;;;;;;;;;;;22.00;40.90;;;;;;5157036;27;19923;-51
2022/02/14 10:56:13;;;;;;;;;;;22.00;40.90;;;;;;5157055;27;19945;-47
2022/02/14 10:58:41;;;;;;;;;;;22.00;40.90;;;;;;5157052;27;20290;-46
2022/02/14 11:01:10;;;;;;;;;;;22.00;40.90;;;;;;5155897;27;19923;-45
2022/02/14 11:03:43;;;;;;;;;;;22.00;40.90;;;;;;5156572;27;20339;-51
2022/02/14 11:06:13;;;;;;;;;;;22.00;40.90;;;;;;5152104;27;19929;-48
2022/02/14 11:08:44;;;;;;;;;;;22.10;40.90;;;;;;5156393;27;20022;-51
2022/02/14 11:11:13;;;;;;;;;;;22.10;40.90;;;;;;5156740;27;19930;-48
2022/02/14 11:13:41;;;;;;;;;;;22.00;40.90;;;;;;5157228;27;19927;-45
2022/02/14 11:16:09;;;;;;;;;;;22.10;41.00;;;;;;5146140;27;19930;-47
2022/02/14 11:18:40;;;;;;;;;;;22.10;40.90;;;;;;5135590;27;19930;-48
2022/02/14 11:21:07;;;;;;;;;;;22.10;41.00;;;;;;5143175;27;19923;-48
2022/02/14 11:23:49;;;;;;;;;;;22.10;41.00;;;;;;5138241;27;19967;-45
2022/02/14 11:26:36;;;;;;;;;;;22.10;41.50;;;;;;5156511;27;19970;-46
2022/02/14 11:29:15;;;;;;;;;;;22.10;40.90;;;;;;5156492;27;19923;-47
2022/02/14 11:31:42;;;;;;;;;;;22.20;41.00;;;;;;5155468;27;19923;-48
2022/02/14 11:34:09;;;;;;;;;;;22.20;41.10;;;;;;5156073;27;20409;-48
2022/02/14 11:36:39;;;;;;;;;;;22.20;41.00;;;;;;5155165;27;19991;-48
2022/02/14 11:39:08;;;;;;;;;;;22.20;41.10;;;;;;5156024;27;19937;-48
2022/02/14 11:41:39;;;;;;;;;;;22.20;41.10;;;;;;5156817;27;19934;-47
2022/02/14 11:44:21;;;;;;;;;;;22.20;41.00;;;;;;5155416;27;19962;-48
2022/02/14 11:46:52;;;;;;;;;;;22.20;41.10;;;;;;5155450;27;19927;-48
2022/02/14 11:49:20;;;;;;;;;;;22.20;41.00;;;;;;5156069;27;19970;-45
2022/02/14 11:52:30;;;;;;;;;;;22.20;41.00;;;;;;5154903;27;19930;-46
2022/02/14 11:54:58;;;;;;;;;;;22.20;41.00;;;;;;5156035;27;19923;-46
2022/02/14 11:57:36;;;;;;;;;;;22.30;41.10;;;;;;5155941;27;19970;-47
2022/02/14 12:00:12;;;;;;;;;;;22.30;41.10;;;;;;5155574;27;20017;-45
2022/02/14 12:02:39;;;;;;;;;;;22.30;41.10;;;;;;5154840;27;19923;-46
2022/02/14 12:05:06;;;;;;;;;;;22.30;41.00;;;;;;5150982;27;19972;-45
2022/02/14 12:07:37;;;;;;;;;;;22.30;41.00;;;;;;5150553;27;19976;-44
2022/02/14 12:10:16;;;;;;;;;;;22.40;41.10;;;;;;5155510;27;19946;-45
2022/02/14 12:12:43;;;;;;;;;;;22.40;41.10;;;;;;5155814;27;19977;-47
2022/02/14 12:21:01;;;;;;;;;;;22.40;41.10;;;;;;5154488;27;19923;-45
2022/02/14 12:23:29;;;;;;;;;;;22.40;41.00;;;;;;5155126;27;19977;-47
2022/02/14 12:25:56;;;;;;;;;;;22.40;41.70;;;;;;5155440;27;19950;-47
2022/02/14 12:28:23;;;;;;;;;;;22.40;41.00;;;;;;5155554;27;20340;-45
2022/02/14 12:30:51;;;;;;;;;;;22.40;41.00;;;;;;5155165;27;20439;-44
2022/02/14 12:33:19;;;;;;;;;;;22.50;41.00;;;;;;5155237;27;19966;-45
2022/02/14 12:35:47;;;;;;;;;;;22.50;41.00;;;;;;5136834;27;20014;-46
2022/02/14 12:38:16;;;;;;;;;;;22.50;41.00;;;;;;5136371;27;20260;-51
2022/02/14 12:40:51;;;;;;;;;;;22.50;41.00;;;;;;5155172;27;19923;-44
2022/02/14 12:43:26;;;;;;;;;;;22.50;41.00;;;;;;5155245;27;19980;-47
2022/02/14 12:45:55;;;;;;;;;;;22.50;41.00;;;;;;5155347;27;20302;-48
2022/02/14 12:48:31;;;;;;;;;;;22.50;41.00;;;;;;5154836;27;19927;-45
2022/02/14 12:51:01;;;;;;;;;;;22.50;41.00;;;;;;5136929;27;19923;-46
2022/02/14 12:53:28;;;;;;;;;;;22.50;41.00;;;;;;5154143;27;19930;-47
2022/02/14 12:56:10;;;;;;;;;;;22.50;41.00;;;;;;5158832;27;19966;-46
2022/02/14 12:58:50;;;;;;;;;;;22.50;41.00;;;;;;5159357;27;19972;-46
2022/02/14 13:01:21;;;;;;;;;;;22.50;41.00;;;;;;5158534;27;20275;-50
2022/02/14 13:03:51;;;;;;;;;;;22.50;41.00;;;;;;5159068;27;19962;-45
2022/02/14 13:06:18;;;;;;;;;;;22.50;41.00;;;;;;5144332;27;19953;-45
2022/02/14 13:08:48;;;;;;;;;;;22.50;41.00;;;;;;5159165;27;19988;-46
2022/02/14 13:11:15;;;;;;;;;;;22.50;40.90;;;;;;5159224;27;19927;-45
2022/02/14 13:13:44;;;;;;;;;;;22.60;41.00;;;;;;5158839;27;19923;-47
2022/02/14 13:16:12;;;;;;;;;;;22.60;41.00;;;;;;5159029;27;19923;-46
2022/02/14 13:18:44;;;;;;;;;;;22.60;41.00;;;;;;5157756;27;19973;-45
2022/02/14 13:21:12;;;;;;;;;;;22.60;41.00;;;;;;5158464;27;19923;-47
2022/02/14 13:23:39;;;;;;;;;;;22.60;41.00;;;;;;5157830;27;20446;-47
2022/02/14 13:26:17;;;;;;;;;;;22.60;41.00;;;;;;5158954;27;19922;-45
2022/02/14 13:28:44;;;;;;;;;;;22.60;41.00;;;;;;5158916;27;19957;-46
2022/02/14 13:31:11;;;;;;;;;;;22.60;41.00;;;;;;5158556;27;19958;-46
2022/02/14 13:33:47;;;;;;;;;;;22.60;41.00;;;;;;5157966;27;20335;-45
2022/02/14 13:36:14;;;;;;;;;;;22.60;41.00;;;;;;5158489;27;19976;-49
2022/02/14 13:38:41;;;;;;;;;;;22.60;41.00;;;;;;5157567;27;19926;-46
2022/02/14 13:41:12;;;;;;;;;;;22.60;41.00;;;;;;5158545;27;19923;-46
2022/02/14 13:43:40;;;;;;;;;;;22.60;41.00;;;;;;5158287;27;19927;-44
2022/02/14 13:46:09;;;;;;;;;;;22.60;41.00;;;;;;5158161;27;20009;-49
2022/02/14 13:48:44;;;;;;;;;;;22.60;41.00;;;;;;5157435;27;19975;-45
2022/02/14 13:51:19;;;;;;;;;;;22.60;41.00;;;;;;5157892;27;19923;-48
2022/02/14 13:53:57;;;;;;;;;;;22.60;41.10;;;;;;5156898;27;19973;-45
2022/02/14 13:56:24;;;;;;;;;;;22.60;41.10;;;;;;5158338;27;19923;-46
2022/02/14 13:58:56;;;;;;;;;;;22.60;41.10;;;;;;5158203;27;20356;-44
2022/02/14 14:01:34;;;;;;;;;;;22.60;41.00;;;;;;5158252;27;20358;-48
2022/02/14 14:04:26;;;;;;;;;;;22.60;41.00;;;;;;5140403;27;19923;-46
2022/02/14 14:07:12;;;;;;;;;;;22.60;41.00;;;;;;5156090;27;19987;-47
2022/02/14 14:09:49;;;;;;;;;;;22.60;41.00;;;;;;5137423;27;19923;-45
2022/02/14 14:12:18;;;;;;;;;;;22.60;41.00;;;;;;5137017;27;20010;-45
2022/02/14 14:14:46;;;;;;;;;;;22.60;41.10;;;;;;5136904;27;19969;-49
2022/02/14 14:17:18;;;;;;;;;;;22.60;41.10;;;;;;5136325;27;19927;-47
2022/02/14 14:19:47;;;;;;;;;;;22.60;41.00;;;;;;5136990;27;19927;-45
2022/02/14 14:22:15;;;;;;;;;;;22.60;41.00;;;;;;5135503;27;19928;-47
2022/02/14 14:24:43;;;;;;;;;;;22.60;41.10;;;;;;5140412;27;19923;-45
2022/02/14 14:27:13;;;;;;;;;;;22.60;41.10;;;;;;5150477;27;19955;-44
2022/02/14 14:29:41;;;;;;;;;;;22.60;41.10;;;;;;5144230;27;19976;-46
2022/02/14 14:32:09;;;;;;;;;;;22.60;41.10;;;;;;5153407;27;20382;-46